Terminal Aerodrome Forecast
Issued by NWS

Home | Current Version | Previous Version | Text Only | Print | Product List | Glossary On
Versions: 1 2 3 4 5 6 7 8 9 10 11 12 13 14 15 16 17 18 19 20 21
000
FTUS41 KCAR 302344 AAA
TAFFVE
TAF AMD
KFVE 302344Z 3100/3118 18008KT 5SM TSRA BR OVC035CB
     FM310100 15005KT P6SM -SHRA SCT020 BKN040
     FM310400 18006KT 5SM BR OVC020
     FM310700 20005KT 3SM BR BKN006
     FM311300 23006KT P6SM BKN035
     FM311700 25010G17KT P6SM BKN060=

USA.gov is the U.S. government's official web portal to all federal, state and local government web resources and services.